sensor_id;sensor_type;location;lat;lon;timestamp;pressure;altitude;pressure_sealevel;temperature;humidity
62712;BME280;48772;55.586;37.730;2023-04-30T00:01:10;99639.63;;;7.56;100.00
62712;BME280;48772;55.586;37.730;2023-04-30T00:03:36;99603.50;;;7.29;100.00
62712;BME280;48772;55.586;37.730;2023-04-30T00:06:02;99605.09;;;7.31;100.00
62712;BME280;48772;55.586;37.730;2023-04-30T00:08:28;99612.84;;;7.34;100.00
62712;BME280;48772;55.586;37.730;2023-04-30T00:10:55;99636.84;;;7.45;100.00
62712;BME280;48772;55.586;37.730;2023-04-30T00:13:21;99621.09;;;7.17;100.00
62712;BME280;48772;55.586;37.730;2023-04-30T00:15:47;99633.91;;;7.11;100.00
62712;BME280;48772;55.586;37.730;2023-04-30T00:18:12;99617.22;;;6.96;100.00
62712;BME280;48772;55.586;37.730;2023-04-30T00:20:38;99644.09;;;7.04;100.00
62712;BME280;48772;55.586;37.730;2023-04-30T00:23:04;99666.97;;;7.05;100.00
62712;BME280;48772;55.586;37.730;2023-04-30T00:25:30;99633.91;;;6.84;100.00
62712;BME280;48772;55.586;37.730;2023-04-30T00:27:56;99638.59;;;6.80;100.00
62712;BME280;48772;55.586;37.730;2023-04-30T00:30:21;99650.44;;;6.75;100.00
62712;BME280;48772;55.586;37.730;2023-04-30T00:32:47;99663.78;;;6.73;100.00
62712;BME280;48772;55.586;37.730;2023-04-30T00:35:13;99646.38;;;6.69;100.00
62712;BME280;48772;55.586;37.730;2023-04-30T00:37:39;99673.56;;;6.85;100.00
62712;BME280;48772;55.586;37.730;2023-04-30T00:40:06;99672.53;;;6.88;100.00
62712;BME280;48772;55.586;37.730;2023-04-30T00:42:32;99634.03;;;6.56;100.00
62712;BME280;48772;55.586;37.730;2023-04-30T00:44:57;99632.97;;;6.58;100.00
62712;BME280;48772;55.586;37.730;2023-04-30T00:47:23;99644.00;;;6.65;100.00
62712;BME280;48772;55.586;37.730;2023-04-30T00:49:50;99643.06;;;6.66;100.00
62712;BME280;48772;55.586;37.730;2023-04-30T00:52:16;99665.00;;;6.82;100.00
62712;BME280;48772;55.586;37.730;2023-04-30T00:54:42;99646.28;;;6.71;100.00
62712;BME280;48772;55.586;37.730;2023-04-30T00:57:11;99668.47;;;6.82;100.00
62712;BME280;48772;55.586;37.730;2023-04-30T00:59:38;99659.97;;;6.77;100.00
62712;BME280;48772;55.586;37.730;2023-04-30T01:02:06;99648.84;;;6.72;100.00
62712;BME280;48772;55.586;37.730;2023-04-30T01:04:33;99659.50;;;6.85;100.00
62712;BME280;48772;55.586;37.730;2023-04-30T01:07:00;99656.72;;;6.86;100.00
62712;BME280;48772;55.586;37.730;2023-04-30T01:09:27;99659.78;;;6.80;100.00
62712;BME280;48772;55.586;37.730;2023-04-30T01:12:25;99666.88;;;6.80;100.00
62712;BME280;48772;55.586;37.730;2023-04-30T01:15:00;99645.16;;;6.61;100.00
62712;BME280;48772;55.586;37.730;2023-04-30T01:19:56;99675.41;;;6.85;100.00
62712;BME280;48772;55.586;37.730;2023-04-30T01:22:30;99659.78;;;6.80;100.00
62712;BME280;48772;55.586;37.730;2023-04-30T01:25:10;99647.63;;;6.64;100.00
62712;BME280;48772;55.586;37.730;2023-04-30T01:28:00;99668.13;;;6.74;100.00
62712;BME280;48772;55.586;37.730;2023-04-30T01:30:30;99683.72;;;6.79;100.00
62712;BME280;48772;55.586;37.730;2023-04-30T01:32:56;99645.81;;;6.64;100.00
62712;BME280;48772;55.586;37.730;2023-04-30T01:43:44;99676.75;;;6.64;100.00
62712;BME280;48772;55.586;37.730;2023-04-30T01:46:23;99670.69;;;6.62;100.00
62712;BME280;48772;55.586;37.730;2023-04-30T01:51:40;99668.63;;;6.67;100.00
62712;BME280;48772;55.586;37.730;2023-04-30T01:54:26;99668.13;;;6.74;100.00
62712;BME280;48772;55.586;37.730;2023-04-30T01:57:10;99650.28;;;6.64;100.00
62712;BME280;48772;55.586;37.730;2023-04-30T01:59:38;99637.22;;;6.61;100.00
62712;BME280;48772;55.586;37.730;2023-04-30T02:02:05;99667.28;;;6.74;100.00
62712;BME280;48772;55.586;37.730;2023-04-30T02:04:31;99646.28;;;6.71;100.00
62712;BME280;48772;55.586;37.730;2023-04-30T02:06:57;99628.22;;;6.63;100.00
62712;BME280;48772;55.586;37.730;2023-04-30T02:09:23;99625.66;;;6.62;100.00
62712;BME280;48772;55.586;37.730;2023-04-30T02:11:50;99664.91;;;6.83;100.00
62712;BME280;48772;55.586;37.730;2023-04-30T02:14:16;99653.44;;;6.83;100.00
62712;BME280;48772;55.586;37.730;2023-04-30T02:17:02;99649.53;;;6.88;100.00
62712;BME280;48772;55.586;37.730;2023-04-30T02:19:29;99647.31;;;6.95;100.00
62712;BME280;48772;55.586;37.730;2023-04-30T02:21:55;99645.53;;;6.96;100.00
62712;BME280;48772;55.586;37.730;2023-04-30T02:24:21;99620.47;;;6.87;100.00
62712;BME280;48772;55.586;37.730;2023-04-30T02:26:47;99630.81;;;7.04;100.00
62712;BME280;48772;55.586;37.730;2023-04-30T02:29:12;99605.66;;;6.97;100.00
62712;BME280;48772;55.586;37.730;2023-04-30T02:31:38;99632.66;;;7.16;100.00
62712;BME280;48772;55.586;37.730;2023-04-30T02:34:04;99574.03;;;6.81;100.00
62712;BME280;48772;55.586;37.730;2023-04-30T02:36:29;99610.44;;;7.05;100.00
62712;BME280;48772;55.586;37.730;2023-04-30T02:39:00;99601.88;;;7.01;100.00
62712;BME280;48772;55.586;37.730;2023-04-30T02:41:26;99601.09;;;6.99;100.00
62712;BME280;48772;55.586;37.730;2023-04-30T02:43:52;99595.16;;;6.96;100.00
62712;BME280;48772;55.586;37.730;2023-04-30T02:46:18;99596.66;;;7.00;100.00
62712;BME280;48772;55.586;37.730;2023-04-30T02:48:44;99615.44;;;7.09;100.00
62712;BME280;48772;55.586;37.730;2023-04-30T02:51:10;99616.06;;;7.00;100.00
62712;BME280;48772;55.586;37.730;2023-04-30T02:53:36;99600.09;;;6.75;100.00
62712;BME280;48772;55.586;37.730;2023-04-30T02:56:02;99625.00;;;6.72;100.00
62712;BME280;48772;55.586;37.730;2023-04-30T02:58:27;99609.66;;;6.63;100.00
62712;BME280;48772;55.586;37.730;2023-04-30T03:00:54;99640.66;;;6.75;100.00
62712;BME280;48772;55.586;37.730;2023-04-30T03:03:20;99635.94;;;6.80;100.00
62712;BME280;48772;55.586;37.730;2023-04-30T03:05:46;99631.91;;;6.61;100.00
62712;BME280;48772;55.586;37.730;2023-04-30T03:08:12;99649.66;;;6.46;100.00
62712;BME280;48772;55.586;37.730;2023-04-30T03:10:37;99622.34;;;6.32;100.00
62712;BME280;48772;55.586;37.730;2023-04-30T03:13:03;99631.59;;;6.39;100.00
62712;BME280;48772;55.586;37.730;2023-04-30T03:15:31;99610.44;;;6.25;100.00
62712;BME280;48772;55.586;37.730;2023-04-30T03:17:57;99616.09;;;6.33;100.00
62712;BME280;48772;55.586;37.730;2023-04-30T03:20:23;99645.88;;;6.50;100.00
62712;BME280;48772;55.586;37.730;2023-04-30T03:22:49;99610.13;;;6.43;100.00
62712;BME280;48772;55.586;37.730;2023-04-30T03:25:15;99612.84;;;6.56;100.00
62712;BME280;48772;55.586;37.730;2023-04-30T03:27:41;99622.44;;;6.71;100.00
62712;BME280;48772;55.586;37.730;2023-04-30T03:30:10;99617.13;;;6.71;100.00
62712;BME280;48772;55.586;37.730;2023-04-30T03:32:35;99636.41;;;6.73;100.00
62712;BME280;48772;55.586;37.730;2023-04-30T03:35:01;99606.94;;;6.65;100.00
62712;BME280;48772;55.586;37.730;2023-04-30T03:37:29;99616.31;;;6.83;100.00
62712;BME280;48772;55.586;37.730;2023-04-30T03:39:55;99575.91;;;6.67;100.00
62712;BME280;48772;55.586;37.730;2023-04-30T03:42:21;99607.88;;;6.91;100.00
62712;BME280;48772;55.586;37.730;2023-04-30T03:44:48;99607.47;;;6.97;100.00
62712;BME280;48772;55.586;37.730;2023-04-30T03:47:14;99605.91;;;7.07;100.00
62712;BME280;48772;55.586;37.730;2023-04-30T03:49:40;99596.03;;;7.09;100.00
62712;BME280;48772;55.586;37.730;2023-04-30T03:52:06;99562.69;;;6.92;100.00
62712;BME280;48772;55.586;37.730;2023-04-30T03:54:32;99574.09;;;7.07;100.00
62712;BME280;48772;55.586;37.730;2023-04-30T03:57:00;99607.75;;;7.31;100.00
62712;BME280;48772;55.586;37.730;2023-04-30T03:59:30;99568.59;;;7.22;100.00
62712;BME280;48772;55.586;37.730;2023-04-30T04:01:56;99594.72;;;7.41;100.00
62712;BME280;48772;55.586;37.730;2023-04-30T04:04:22;99596.09;;;7.46;100.00
62712;BME280;48772;55.586;37.730;2023-04-30T04:06:48;99569.56;;;7.46;100.00
62712;BME280;48772;55.586;37.730;2023-04-30T04:09:13;99592.94;;;7.66;100.00
62712;BME280;48772;55.586;37.730;2023-04-30T04:11:41;99590.19;;;7.80;100.00
62712;BME280;48772;55.586;37.730;2023-04-30T04:14:06;99593.97;;;7.89;100.00
62712;BME280;48772;55.586;37.730;2023-04-30T04:16:32;99586.66;;;7.92;100.00
62712;BME280;48772;55.586;37.730;2023-04-30T04:18:58;99565.03;;;7.73;100.00
62712;BME280;48772;55.586;37.730;2023-04-30T04:21:24;99588.44;;;7.92;100.00
62712;BME280;48772;55.586;37.730;2023-04-30T04:23:51;99576.56;;;7.85;100.00
62712;BME280;48772;55.586;37.730;2023-04-30T04:26:17;99587.28;;;7.96;100.00
62712;BME280;48772;55.586;37.730;2023-04-30T04:28:44;99565.72;;;7.88;100.00
62712;BME280;48772;55.586;37.730;2023-04-30T04:31:11;99585.47;;;8.09;100.00
62712;BME280;48772;55.586;37.730;2023-04-30T04:33:37;99577.19;;;8.01;100.00
62712;BME280;48772;55.586;37.730;2023-04-30T04:36:03;99582.72;;;8.23;100.00
62712;BME280;48772;55.586;37.730;2023-04-30T04:38:29;99582.47;;;8.26;100.00
62712;BME280;48772;55.586;37.730;2023-04-30T04:40:55;99557.84;;;8.11;100.00
62712;BME280;48772;55.586;37.730;2023-04-30T04:43:22;99587.63;;;8.40;100.00
62712;BME280;48772;55.586;37.730;2023-04-30T04:45:48;99577.88;;;8.40;100.00
62712;BME280;48772;55.586;37.730;2023-04-30T04:48:14;99571.88;;;8.49;100.00
62712;BME280;48772;55.586;37.730;2023-04-30T04:50:40;99583.69;;;8.69;100.00
62712;BME280;48772;55.586;37.730;2023-04-30T04:53:06;99552.13;;;8.64;100.00
62712;BME280;48772;55.586;37.730;2023-04-30T04:55:32;99561.94;;;8.87;100.00
62712;BME280;48772;55.586;37.730;2023-04-30T04:57:58;99556.72;;;8.86;100.00
62712;BME280;48772;55.586;37.730;2023-04-30T05:00:24;99567.19;;;9.00;100.00
62712;BME280;48772;55.586;37.730;2023-04-30T05:02:50;99530.41;;;8.94;100.00
62712;BME280;48772;55.586;37.730;2023-04-30T05:05:16;99559.16;;;9.23;100.00
62712;BME280;48772;55.586;37.730;2023-04-30T05:07:42;99529.75;;;9.14;100.00
62712;BME280;48772;55.586;37.730;2023-04-30T05:10:08;99543.84;;;9.49;100.00
62712;BME280;48772;55.586;37.730;2023-04-30T05:12:34;99531.75;;;9.56;100.00
62712;BME280;48772;55.586;37.730;2023-04-30T05:15:00;99547.84;;;9.87;100.00
62712;BME280;48772;55.586;37.730;2023-04-30T05:17:26;99499.69;;;9.68;100.00
62712;BME280;48772;55.586;37.730;2023-04-30T05:19:52;99544.09;;;10.01;100.00
62712;BME280;48772;55.586;37.730;2023-04-30T05:22:17;99532.63;;;10.00;100.00
62712;BME280;48772;55.586;37.730;2023-04-30T05:24:43;99516.66;;;9.78;100.00
62712;BME280;48772;55.586;37.730;2023-04-30T05:27:09;99531.53;;;9.81;100.00
62712;BME280;48772;55.586;37.730;2023-04-30T05:29:35;99529.84;;;9.91;100.00
62712;BME280;48772;55.586;37.730;2023-04-30T05:32:00;99548.59;;;10.00;100.00
62712;BME280;48772;55.586;37.730;2023-04-30T05:34:26;99544.22;;;10.22;100.00
62712;BME280;48772;55.586;37.730;2023-04-30T05:36:52;99544.47;;;10.41;100.00
62712;BME280;48772;55.586;37.730;2023-04-30T05:39:18;99525.06;;;10.39;100.00
62712;BME280;48772;55.586;37.730;2023-04-30T05:41:44;99534.25;;;10.46;100.00
62712;BME280;48772;55.586;37.730;2023-04-30T05:44:10;99515.84;;;10.43;100.00
62712;BME280;48772;55.586;37.730;2023-04-30T05:46:36;99509.69;;;10.42;100.00
62712;BME280;48772;55.586;37.730;2023-04-30T05:49:02;99514.53;;;10.69;100.00
62712;BME280;48772;55.586;37.730;2023-04-30T05:51:28;99521.06;;;10.76;100.00
62712;BME280;48772;55.586;37.730;2023-04-30T05:53:54;99529.44;;;11.03;100.00
62712;BME280;48772;55.586;37.730;2023-04-30T05:56:22;99519.84;;;11.00;100.00
62712;BME280;48772;55.586;37.730;2023-04-30T05:58:49;99515.25;;;11.23;100.00
62712;BME280;48772;55.586;37.730;2023-04-30T06:01:19;99536.09;;;11.29;100.00
62712;BME280;48772;55.586;37.730;2023-04-30T06:03:46;99540.69;;;11.47;100.00
62712;BME280;48772;55.586;37.730;2023-04-30T06:06:11;99539.72;;;11.48;100.00
62712;BME280;48772;55.586;37.730;2023-04-30T06:08:37;99546.91;;;11.48;100.00
62712;BME280;48772;55.586;37.730;2023-04-30T06:11:06;99537.38;;;11.55;100.00
62712;BME280;48772;55.586;37.730;2023-04-30T06:13:32;99533.59;;;11.78;100.00
62712;BME280;48772;55.586;37.730;2023-04-30T06:15:58;99545.63;;;11.93;100.00
62712;BME280;48772;55.586;37.730;2023-04-30T06:18:24;99546.34;;;11.95;100.00
62712;BME280;48772;55.586;37.730;2023-04-30T06:20:50;99531.16;;;12.05;100.00
62712;BME280;48772;55.586;37.730;2023-04-30T06:23:15;99550.13;;;12.32;100.00
62712;BME280;48772;55.586;37.730;2023-04-30T06:25:41;99538.06;;;12.47;100.00
62712;BME280;48772;55.586;37.730;2023-04-30T06:28:07;99531.31;;;12.43;100.00
62712;BME280;48772;55.586;37.730;2023-04-30T06:30:35;99516.63;;;12.28;100.00
62712;BME280;48772;55.586;37.730;2023-04-30T06:33:01;99547.09;;;12.46;100.00
62712;BME280;48772;55.586;37.730;2023-04-30T06:35:27;99529.78;;;12.50;100.00
62712;BME280;48772;55.586;37.730;2023-04-30T06:37:53;99538.63;;;12.50;100.00
62712;BME280;48772;55.586;37.730;2023-04-30T06:40:19;99516.63;;;12.28;100.00
62712;BME280;48772;55.586;37.730;2023-04-30T06:42:49;99523.25;;;12.33;100.00
62712;BME280;48772;55.586;37.730;2023-04-30T06:45:14;99529.44;;;12.43;100.00
62712;BME280;48772;55.586;37.730;2023-04-30T06:47:40;99518.75;;;12.43;100.00
62712;BME280;48772;55.586;37.730;2023-04-30T06:50:08;99492.88;;;12.44;100.00
62712;BME280;48772;55.586;37.730;2023-04-30T06:52:34;99515.56;;;12.59;100.00
62712;BME280;48772;55.586;37.730;2023-04-30T06:55:00;99510.31;;;12.38;100.00
62712;BME280;48772;55.586;37.730;2023-04-30T06:57:26;99503.13;;;12.29;100.00
62712;BME280;48772;55.586;37.730;2023-04-30T06:59:52;99507.22;;;12.33;100.00
62712;BME280;48772;55.586;37.730;2023-04-30T07:02:18;99509.91;;;12.33;100.00
62712;BME280;48772;55.586;37.730;2023-04-30T07:04:44;99510.31;;;12.48;100.00
62712;BME280;48772;55.586;37.730;2023-04-30T07:07:10;99462.16;;;12.19;100.00
62712;BME280;48772;55.586;37.730;2023-04-30T07:09:36;99503.41;;;12.36;100.00
62712;BME280;48772;55.586;37.730;2023-04-30T07:12:02;99492.31;;;12.50;100.00
62712;BME280;48772;55.586;37.730;2023-04-30T07:14:47;99489.06;;;12.37;100.00
62712;BME280;48772;55.586;37.730;2023-04-30T07:17:12;99452.72;;;12.06;100.00
62712;BME280;48772;55.586;37.730;2023-04-30T07:19:38;99474.06;;;11.96;100.00
62712;BME280;48772;55.586;37.730;2023-04-30T07:22:04;99449.97;;;11.87;100.00
62712;BME280;48772;55.586;37.730;2023-04-30T07:24:30;99470.41;;;12.07;98.20
62712;BME280;48772;55.586;37.730;2023-04-30T07:26:55;99447.50;;;12.04;99.71
62712;BME280;48772;55.586;37.730;2023-04-30T07:29:21;99442.03;;;12.15;100.00
62712;BME280;48772;55.586;37.730;2023-04-30T07:31:47;99448.38;;;12.24;100.00
62712;BME280;48772;55.586;37.730;2023-04-30T07:34:20;99438.13;;;12.38;98.88
62712;BME280;48772;55.586;37.730;2023-04-30T07:36:49;99410.38;;;12.39;98.69
62712;BME280;48772;55.586;37.730;2023-04-30T07:39:15;99421.66;;;12.43;90.85
62712;BME280;48772;55.586;37.730;2023-04-30T07:42:08;99423.34;;;12.44;85.06
62712;BME280;48772;55.586;37.730;2023-04-30T07:44:34;99422.91;;;12.58;84.15
62712;BME280;48772;55.586;37.730;2023-04-30T07:47:00;99394.47;;;12.19;67.02
62712;BME280;48772;55.586;37.730;2023-04-30T07:49:27;99412.75;;;12.14;68.92
62712;BME280;48772;55.586;37.730;2023-04-30T07:51:53;99412.03;;;12.12;68.09
62712;BME280;48772;55.586;37.730;2023-04-30T07:54:18;99371.19;;;11.72;72.52
62712;BME280;48772;55.586;37.730;2023-04-30T07:56:44;99401.00;;;11.77;75.90
62712;BME280;48772;55.586;37.730;2023-04-30T07:59:10;99398.63;;;11.74;78.88
62712;BME280;48772;55.586;37.730;2023-04-30T08:01:36;99363.66;;;11.47;75.18
62712;BME280;48772;55.586;37.730;2023-04-30T08:04:01;99389.03;;;11.62;77.36
62712;BME280;48772;55.586;37.730;2023-04-30T08:06:27;99382.94;;;11.60;76.97
62712;BME280;48772;55.586;37.730;2023-04-30T08:08:53;99370.06;;;11.65;81.51
62712;BME280;48772;55.586;37.730;2023-04-30T08:11:19;99362.59;;;11.68;76.78
62712;BME280;48772;55.586;37.730;2023-04-30T08:13:45;99350.88;;;11.60;78.03
62712;BME280;48772;55.586;37.730;2023-04-30T08:16:11;99328.09;;;11.46;80.44
62712;BME280;48772;55.586;37.730;2023-04-30T08:18:37;99339.31;;;11.50;81.86
62712;BME280;48772;55.586;37.730;2023-04-30T08:21:12;99345.38;;;11.52;81.33
62712;BME280;48772;55.586;37.730;2023-04-30T08:23:38;99329.63;;;11.49;81.48
62712;BME280;48772;55.586;37.730;2023-04-30T08:26:04;99327.69;;;11.51;82.59
62712;BME280;48772;55.586;37.730;2023-04-30T08:28:30;99336.38;;;11.53;81.35
62712;BME280;48772;55.586;37.730;2023-04-30T08:30:56;99335.22;;;11.46;82.66
62712;BME280;48772;55.586;37.730;2023-04-30T08:33:21;99327.34;;;11.35;86.88
62712;BME280;48772;55.586;37.730;2023-04-30T08:35:47;99257.97;;;10.95;92.07
62712;BME280;48772;55.586;37.730;2023-04-30T08:38:16;99310.94;;;11.49;92.22
62712;BME280;48772;55.586;37.730;2023-04-30T08:40:44;99305.78;;;11.66;91.36
62712;BME280;48772;55.586;37.730;2023-04-30T08:43:13;99307.94;;;11.82;92.64
62712;BME280;48772;55.586;37.730;2023-04-30T08:45:40;99312.88;;;11.86;91.85
62712;BME280;48772;55.586;37.730;2023-04-30T08:48:09;99285.28;;;11.76;91.04
62712;BME280;48772;55.586;37.730;2023-04-30T08:50:36;99296.25;;;11.64;93.93
62712;BME280;48772;55.586;37.730;2023-04-30T08:53:02;99307.38;;;11.78;95.86
62712;BME280;48772;55.586;37.730;2023-04-30T08:55:28;99299.75;;;11.64;95.04
62712;BME280;48772;55.586;37.730;2023-04-30T08:57:54;99290.84;;;11.54;96.33
62712;BME280;48772;55.586;37.730;2023-04-30T09:00:20;99291.16;;;11.61;98.04
62712;BME280;48772;55.586;37.730;2023-04-30T09:02:47;99275.72;;;11.64;98.87
62712;BME280;48772;55.586;37.730;2023-04-30T09:05:14;99277.22;;;11.57;99.66
62712;BME280;48772;55.586;37.730;2023-04-30T09:07:44;99275.81;;;11.53;100.00
62712;BME280;48772;55.586;37.730;2023-04-30T09:10:16;99262.25;;;11.66;100.00
62712;BME280;48772;55.586;37.730;2023-04-30T09:12:42;99260.97;;;11.70;100.00
62712;BME280;48772;55.586;37.730;2023-04-30T09:15:11;99247.34;;;11.73;100.00
62712;BME280;48772;55.586;37.730;2023-04-30T09:18:09;99258.16;;;11.81;100.00
62712;BME280;48772;55.586;37.730;2023-04-30T09:20:36;99244.09;;;11.79;100.00
62712;BME280;48772;55.586;37.730;2023-04-30T09:23:10;99240.88;;;11.85;100.00
62712;BME280;48772;55.586;37.730;2023-04-30T09:25:40;99241.00;;;11.93;100.00
62712;BME280;48772;55.586;37.730;2023-04-30T09:28:10;99242.53;;;12.05;94.20
62712;BME280;48772;55.586;37.730;2023-04-30T09:30:37;99243.25;;;11.97;90.73
62712;BME280;48772;55.586;37.730;2023-04-30T09:33:03;99237.50;;;12.02;88.37
62712;BME280;48772;55.586;37.730;2023-04-30T09:35:36;99229.31;;;12.13;90.67
62712;BME280;48772;55.586;37.730;2023-04-30T09:38:03;99222.69;;;12.17;87.82
62712;BME280;48772;55.586;37.730;2023-04-30T09:40:36;99216.53;;;12.07;82.30
62712;BME280;48772;55.586;37.730;2023-04-30T09:43:03;99217.38;;;11.88;80.96
62712;BME280;48772;55.586;37.730;2023-04-30T09:45:45;99225.69;;;11.95;83.67
62712;BME280;48772;55.586;37.730;2023-04-30T09:48:23;99189.69;;;11.80;81.57
62712;BME280;48772;55.586;37.730;2023-04-30T09:50:50;99195.44;;;11.85;81.83
62712;BME280;48772;55.586;37.730;2023-04-30T09:53:17;99183.50;;;11.70;83.04
62712;BME280;48772;55.586;37.730;2023-04-30T09:55:44;99157.38;;;11.64;86.74
62712;BME280;48772;55.586;37.730;2023-04-30T09:58:13;99210.78;;;11.92;86.95
62712;BME280;48772;55.586;37.730;2023-04-30T10:00:41;99195.03;;;11.99;86.87
62712;BME280;48772;55.586;37.730;2023-04-30T10:03:25;99193.03;;;12.01;85.81
62712;BME280;48772;55.586;37.730;2023-04-30T10:05:51;99195.84;;;11.90;83.53
62712;BME280;48772;55.586;37.730;2023-04-30T10:08:28;99206.97;;;11.95;85.89
62712;BME280;48772;55.586;37.730;2023-04-30T10:11:14;99223.13;;;12.03;86.68
62712;BME280;48772;55.586;37.730;2023-04-30T10:13:54;99216.13;;;12.02;87.01
62712;BME280;48772;55.586;37.730;2023-04-30T10:19:22;99225.09;;;11.91;86.54
62712;BME280;48772;55.586;37.730;2023-04-30T10:21:48;99209.91;;;12.01;89.56
62712;BME280;48772;55.586;37.730;2023-04-30T10:24:16;99184.22;;;11.91;90.16
62712;BME280;48772;55.586;37.730;2023-04-30T10:26:44;99178.56;;;11.94;92.18
62712;BME280;48772;55.586;37.730;2023-04-30T10:29:12;99221.44;;;12.11;91.91
62712;BME280;48772;55.586;37.730;2023-04-30T10:31:57;99216.66;;;12.15;94.11
62712;BME280;48772;55.586;37.730;2023-04-30T10:37:48;99214.91;;;12.33;93.47
62712;BME280;48772;55.586;37.730;2023-04-30T10:40:18;99194.44;;;12.14;93.99
62712;BME280;48772;55.586;37.730;2023-04-30T10:42:47;99217.47;;;12.25;92.72
62712;BME280;48772;55.586;37.730;2023-04-30T10:45:15;99189.63;;;12.18;94.17
62712;BME280;48772;55.586;37.730;2023-04-30T10:50:28;99191.25;;;12.38;95.86
62712;BME280;48772;55.586;37.730;2023-04-30T10:53:01;99204.06;;;12.44;93.95
62712;BME280;48772;55.586;37.730;2023-04-30T10:55:31;99179.75;;;12.28;90.59
62712;BME280;48772;55.586;37.730;2023-04-30T10:57:57;99184.94;;;12.39;86.75
62712;BME280;48772;55.586;37.730;2023-04-30T11:00:25;99209.97;;;12.47;86.19
62712;BME280;48772;55.586;37.730;2023-04-30T11:02:56;99210.13;;;12.46;89.16
62712;BME280;48772;55.586;37.730;2023-04-30T11:05:38;99196.84;;;12.54;91.24
62712;BME280;48772;55.586;37.730;2023-04-30T11:08:35;99187.88;;;12.45;91.09
62712;BME280;48772;55.586;37.730;2023-04-30T11:11:02;99179.56;;;12.48;92.58
62712;BME280;48772;55.586;37.730;2023-04-30T11:13:45;99147.78;;;12.36;89.39
62712;BME280;48772;55.586;37.730;2023-04-30T11:16:16;99134.72;;;12.33;87.48
62712;BME280;48772;55.586;37.730;2023-04-30T11:18:45;99151.66;;;12.51;86.71
62712;BME280;48772;55.586;37.730;2023-04-30T11:21:12;99139.00;;;12.53;87.57
62712;BME280;48772;55.586;37.730;2023-04-30T11:23:42;99142.88;;;12.68;87.90
62712;BME280;48772;55.586;37.730;2023-04-30T11:26:09;99122.75;;;12.64;88.59
62712;BME280;48772;55.586;37.730;2023-04-30T11:28:36;99101.09;;;12.57;89.61
62712;BME280;48772;55.586;37.730;2023-04-30T11:31:03;99108.97;;;12.59;90.17
62712;BME280;48772;55.586;37.730;2023-04-30T11:33:30;99110.56;;;12.52;91.01
62712;BME280;48772;55.586;37.730;2023-04-30T11:35:59;99117.75;;;12.51;91.89
62712;BME280;48772;55.586;37.730;2023-04-30T11:38:44;99112.25;;;12.53;94.86
62712;BME280;48772;55.586;37.730;2023-04-30T11:41:11;99125.03;;;12.59;95.10
62712;BME280;48772;55.586;37.730;2023-04-30T11:43:37;99120.28;;;12.53;94.86
62712;BME280;48772;55.586;37.730;2023-04-30T11:46:12;99127.59;;;12.51;97.61
62712;BME280;48772;55.586;37.730;2023-04-30T11:48:42;99107.94;;;12.42;100.00
62712;BME280;48772;55.586;37.730;2023-04-30T11:51:18;99114.72;;;12.37;99.98
62712;BME280;48772;55.586;37.730;2023-04-30T11:53:51;99104.44;;;12.32;100.00
62712;BME280;48772;55.586;37.730;2023-04-30T11:56:24;99103.22;;;12.27;100.00
62712;BME280;48772;55.586;37.730;2023-04-30T11:58:51;99091.13;;;12.23;99.99
62712;BME280;48772;55.586;37.730;2023-04-30T12:01:36;99079.66;;;12.13;99.02
62712;BME280;48772;55.586;37.730;2023-04-30T12:04:02;99108.59;;;12.17;100.00
62712;BME280;48772;55.586;37.730;2023-04-30T12:06:31;99066.78;;;11.89;100.00
62712;BME280;48772;55.586;37.730;2023-04-30T12:08:59;99095.25;;;12.08;100.00
62712;BME280;48772;55.586;37.730;2023-04-30T12:11:43;99087.72;;;12.03;100.00
62712;BME280;48772;55.586;37.730;2023-04-30T12:14:10;99086.13;;;12.01;100.00
62712;BME280;48772;55.586;37.730;2023-04-30T12:16:44;99088.41;;;11.96;100.00
62712;BME280;48772;55.586;37.730;2023-04-30T12:19:13;99089.31;;;11.87;100.00
62712;BME280;48772;55.586;37.730;2023-04-30T12:21:41;99102.06;;;11.93;100.00
62712;BME280;48772;55.586;37.730;2023-04-30T12:24:28;99111.94;;;11.92;100.00
62712;BME280;48772;55.586;37.730;2023-04-30T12:26:54;99116.31;;;11.84;100.00
62712;BME280;48772;55.586;37.730;2023-04-30T12:29:21;99119.13;;;11.73;100.00
62712;BME280;48772;55.586;37.730;2023-04-30T12:31:48;99116.16;;;11.66;100.00
62712;BME280;48772;55.586;37.730;2023-04-30T12:34:16;99117.03;;;11.67;100.00
62712;BME280;48772;55.586;37.730;2023-04-30T12:36:43;99125.03;;;11.67;100.00
62712;BME280;48772;55.586;37.730;2023-04-30T12:39:14;99083.72;;;11.52;100.00
62712;BME280;48772;55.586;37.730;2023-04-30T12:41:45;99109.84;;;11.58;100.00
62712;BME280;48772;55.586;37.730;2023-04-30T12:44:24;99123.06;;;11.59;100.00
62712;BME280;48772;55.586;37.730;2023-04-30T12:46:55;99116.47;;;11.54;100.00
62712;BME280;48772;55.586;37.730;2023-04-30T12:49:25;99118.53;;;11.60;100.00
62712;BME280;48772;55.586;37.730;2023-04-30T12:52:05;99104.78;;;11.55;100.00
62712;BME280;48772;55.586;37.730;2023-04-30T12:54:34;99122.06;;;11.60;100.00
62712;BME280;48772;55.586;37.730;2023-04-30T12:57:08;99098.59;;;11.45;100.00
62712;BME280;48772;55.586;37.730;2023-04-30T12:59:55;99063.94;;;11.26;100.00
62712;BME280;48772;55.586;37.730;2023-04-30T13:02:23;99116.00;;;11.58;100.00
62712;BME280;48772;55.586;37.730;2023-04-30T13:04:52;99103.13;;;11.54;100.00
62712;BME280;48772;55.586;37.730;2023-04-30T13:08:00;99111.81;;;11.65;100.00
62712;BME280;48772;55.586;37.730;2023-04-30T13:10:45;99105.09;;;11.61;100.00
62712;BME280;48772;55.586;37.730;2023-04-30T13:16:00;99099.72;;;11.52;100.00
62712;BME280;48772;55.586;37.730;2023-04-30T13:18:27;99095.53;;;11.49;100.00
62712;BME280;48772;55.586;37.730;2023-04-30T13:20:52;99096.91;;;11.53;100.00